sensor_id;sensor_type;location;lat;lon;timestamp;pressure;altitude;pressure_sealevel;temperature;humidity
11643;BME280;5877;50.930;6.918;2023-07-31T04:32:45;100430.75;;;18.87;73.69
11643;BME280;5877;50.930;6.918;2023-07-31T04:37:37;100507.47;;;19.39;72.68
11643;BME280;5877;50.930;6.918;2023-07-31T04:42:31;100485.22;;;19.04;72.96
11643;BME280;5877;50.930;6.918;2023-07-31T04:47:23;100336.16;;;18.50;70.81
11643;BME280;5877;50.930;6.918;2023-07-31T04:52:15;100433.59;;;19.05;70.23
11643;BME280;5877;50.930;6.918;2023-07-31T04:57:08;100405.38;;;19.09;69.45
11643;BME280;5877;50.930;6.918;2023-07-31T05:02:02;100437.16;;;19.45;68.53
11643;BME280;5877;50.930;6.918;2023-07-31T05:06:54;100488.91;;;19.83;67.48
11643;BME280;5877;50.930;6.918;2023-07-31T05:11:45;100356.78;;;19.43;65.96
11643;BME280;5877;50.930;6.918;2023-07-31T05:16:38;100445.09;;;19.99;65.47
11643;BME280;5877;50.930;6.918;2023-07-31T05:21:32;100443.44;;;20.37;64.34
11643;BME280;5877;50.930;6.918;2023-07-31T05:26:25;100443.38;;;20.48;63.86
11643;BME280;5877;50.930;6.918;2023-07-31T05:31:17;100318.06;;;19.95;63.36
11643;BME280;5877;50.930;6.918;2023-07-31T05:36:09;100421.72;;;20.54;63.22
11643;BME280;5877;50.930;6.918;2023-07-31T05:41:01;100397.88;;;20.39;63.21
11643;BME280;5877;50.930;6.918;2023-07-31T05:45:55;100319.13;;;19.65;63.55
11643;BME280;5877;50.930;6.918;2023-07-31T05:50:47;100363.31;;;20.00;63.69
11643;BME280;5877;50.930;6.918;2023-07-31T05:55:39;100390.28;;;20.22;63.80
11643;BME280;5877;50.930;6.918;2023-07-31T06:00:32;100394.03;;;20.21;64.98
11643;BME280;5877;50.930;6.918;2023-07-31T06:05:25;100297.56;;;19.61;66.40
11643;BME280;5877;50.930;6.918;2023-07-31T06:10:18;100400.88;;;19.98;68.17
11643;BME280;5877;50.930;6.918;2023-07-31T06:15:11;100403.78;;;20.02;69.67
11643;BME280;5877;50.930;6.918;2023-07-31T06:20:06;100429.16;;;19.94;70.62
11643;BME280;5877;50.930;6.918;2023-07-31T06:24:58;100394.84;;;19.43;70.98
11643;BME280;5877;50.930;6.918;2023-07-31T06:29:50;100356.31;;;19.75;70.13
11643;BME280;5877;50.930;6.918;2023-07-31T06:34:42;100396.22;;;20.14;69.57
11643;BME280;5877;50.930;6.918;2023-07-31T06:39:37;100413.56;;;20.12;71.03
11643;BME280;5877;50.930;6.918;2023-07-31T06:44:32;100253.84;;;19.33;69.79
11643;BME280;5877;50.930;6.918;2023-07-31T06:49:24;100358.19;;;20.32;68.67
11643;BME280;5877;50.930;6.918;2023-07-31T06:54:16;100311.63;;;20.91;65.75
11643;BME280;5877;50.930;6.918;2023-07-31T06:59:09;100368.72;;;21.70;63.36
11643;BME280;5877;50.930;6.918;2023-07-31T07:04:01;100377.50;;;21.90;62.59
11643;BME280;5877;50.930;6.918;2023-07-31T07:08:53;100365.28;;;22.02;61.52
11643;BME280;5877;50.930;6.918;2023-07-31T07:13:45;100389.53;;;22.06;62.21
11643;BME280;5877;50.930;6.918;2023-07-31T07:18:38;100388.94;;;21.77;64.42
11643;BME280;5877;50.930;6.918;2023-07-31T07:23:45;100365.31;;;21.84;63.89
11643;BME280;5877;50.930;6.918;2023-07-31T07:28:37;100373.34;;;21.65;65.52
11643;BME280;5877;50.930;6.918;2023-07-31T07:33:31;100405.41;;;21.46;67.00
11643;BME280;5877;50.930;6.918;2023-07-31T07:38:24;100326.00;;;20.53;68.10
11643;BME280;5877;50.930;6.918;2023-07-31T07:43:16;100272.28;;;20.17;69.17
11643;BME280;5877;50.930;6.918;2023-07-31T07:48:12;100337.81;;;20.47;69.38
11643;BME280;5877;50.930;6.918;2023-07-31T07:53:04;100323.78;;;20.36;70.09
11643;BME280;5877;50.930;6.918;2023-07-31T07:57:56;100389.00;;;20.72;71.25
11643;BME280;5877;50.930;6.918;2023-07-31T08:02:48;100317.91;;;20.39;70.88
11643;BME280;5877;50.930;6.918;2023-07-31T08:07:41;100294.25;;;20.03;72.07
11643;BME280;5877;50.930;6.918;2023-07-31T08:12:33;100310.38;;;20.17;67.46
11643;BME280;5877;50.930;6.918;2023-07-31T08:17:25;100283.28;;;20.10;67.36
11643;BME280;5877;50.930;6.918;2023-07-31T08:22:16;100353.13;;;20.60;66.96
11643;BME280;5877;50.930;6.918;2023-07-31T08:27:09;100362.25;;;20.96;66.80
11643;BME280;5877;50.930;6.918;2023-07-31T08:32:02;100365.38;;;21.03;68.14
11643;BME280;5877;50.930;6.918;2023-07-31T08:36:55;100365.06;;;21.48;66.28
11643;BME280;5877;50.930;6.918;2023-07-31T08:41:47;100353.94;;;21.41;65.29
11643;BME280;5877;50.930;6.918;2023-07-31T08:46:40;100351.72;;;21.29;65.79
11643;BME280;5877;50.930;6.918;2023-07-31T08:51:34;100358.44;;;21.26;65.56
11643;BME280;5877;50.930;6.918;2023-07-31T08:56:28;100342.59;;;21.11;67.09
11643;BME280;5877;50.930;6.918;2023-07-31T09:01:21;100364.63;;;21.59;65.05
11643;BME280;5877;50.930;6.918;2023-07-31T09:06:15;100302.97;;;21.56;64.67
11643;BME280;5877;50.930;6.918;2023-07-31T09:11:09;100333.38;;;21.41;67.20
11643;BME280;5877;50.930;6.918;2023-07-31T09:16:03;100311.44;;;21.77;63.86
11643;BME280;5877;50.930;6.918;2023-07-31T09:21:03;100369.59;;;21.98;64.96
11643;BME280;5877;50.930;6.918;2023-07-31T09:25:55;100318.78;;;21.52;67.02
11643;BME280;5877;50.930;6.918;2023-07-31T09:30:51;100328.38;;;22.18;64.09
11643;BME280;5877;50.930;6.918;2023-07-31T09:35:43;100352.38;;;22.51;63.58
11643;BME280;5877;50.930;6.918;2023-07-31T09:40:38;100281.31;;;22.72;59.96
11643;BME280;5877;50.930;6.918;2023-07-31T09:45:34;100265.09;;;22.55;60.40
11643;BME280;5877;50.930;6.918;2023-07-31T09:50:32;100203.44;;;22.60;59.53
11643;BME280;5877;50.930;6.918;2023-07-31T09:55:25;100285.44;;;23.28;58.86
11643;BME280;5877;50.930;6.918;2023-07-31T10:00:18;100310.00;;;23.52;57.78
11643;BME280;5877;50.930;6.918;2023-07-31T10:05:14;100291.00;;;23.85;56.47
11643;BME280;5877;50.930;6.918;2023-07-31T10:10:08;100277.69;;;23.71;56.53
11643;BME280;5877;50.930;6.918;2023-07-31T10:15:05;100303.38;;;23.72;56.61
11643;BME280;5877;50.930;6.918;2023-07-31T10:20:00;100260.97;;;23.21;57.56
11643;BME280;5877;50.930;6.918;2023-07-31T10:24:58;100273.25;;;22.99;56.51
11643;BME280;5877;50.930;6.918;2023-07-31T10:29:55;100285.06;;;23.21;57.26
11643;BME280;5877;50.930;6.918;2023-07-31T10:34:50;100301.91;;;23.88;53.68
11643;BME280;5877;50.930;6.918;2023-07-31T10:40:04;100262.53;;;23.67;53.96
11643;BME280;5877;50.930;6.918;2023-07-31T10:45:04;100194.47;;;22.78;54.30
11643;BME280;5877;50.930;6.918;2023-07-31T10:50:20;100216.31;;;23.61;53.68
11643;BME280;5877;50.930;6.918;2023-07-31T10:55:29;100284.31;;;23.74;53.83
11643;BME280;5877;50.930;6.918;2023-07-31T11:00:26;100292.66;;;24.03;54.94
11643;BME280;5877;50.930;6.918;2023-07-31T11:05:20;100310.50;;;23.77;56.17
11643;BME280;5877;50.930;6.918;2023-07-31T11:10:17;100258.69;;;22.92;60.48
11643;BME280;5877;50.930;6.918;2023-07-31T11:15:10;100310.56;;;23.18;60.13
11643;BME280;5877;50.930;6.918;2023-07-31T11:20:04;100244.03;;;22.76;60.87
11643;BME280;5877;50.930;6.918;2023-07-31T11:24:58;100191.47;;;22.93;59.72
11643;BME280;5877;50.930;6.918;2023-07-31T11:29:51;100284.78;;;24.38;55.00
11643;BME280;5877;50.930;6.918;2023-07-31T11:34:52;100200.97;;;24.32;53.39
11643;BME280;5877;50.930;6.918;2023-07-31T11:39:58;100286.00;;;24.97;51.95
11643;BME280;5877;50.930;6.918;2023-07-31T11:44:53;100248.69;;;24.96;50.98
11643;BME280;5877;50.930;6.918;2023-07-31T11:49:45;100179.84;;;24.82;50.75
11643;BME280;5877;50.930;6.918;2023-07-31T11:54:39;100199.75;;;24.64;50.88
11643;BME280;5877;50.930;6.918;2023-07-31T11:59:32;100157.25;;;23.75;52.17
11643;BME280;5877;50.930;6.918;2023-07-31T12:04:25;100244.84;;;23.96;53.28
11643;BME280;5877;50.930;6.918;2023-07-31T12:09:18;100238.19;;;23.85;54.03
11643;BME280;5877;50.930;6.918;2023-07-31T12:14:31;100249.91;;;23.98;54.65
11643;BME280;5877;50.930;6.918;2023-07-31T12:19:27;100250.75;;;23.76;54.87
11643;BME280;5877;50.930;6.918;2023-07-31T12:24:22;100174.81;;;22.96;54.96
11643;BME280;5877;50.930;6.918;2023-07-31T12:29:14;100174.97;;;23.22;54.69
11643;BME280;5877;50.930;6.918;2023-07-31T12:34:18;100236.06;;;23.74;54.52
11643;BME280;5877;50.930;6.918;2023-07-31T12:39:11;100246.59;;;24.01;54.47
11643;BME280;5877;50.930;6.918;2023-07-31T12:44:04;100186.03;;;24.00;52.64
11643;BME280;5877;50.930;6.918;2023-07-31T12:48:57;100184.06;;;23.75;53.21
11643;BME280;5877;50.930;6.918;2023-07-31T12:53:49;100214.38;;;23.84;54.11
11643;BME280;5877;50.930;6.918;2023-07-31T12:58:42;100225.53;;;23.77;54.56
11643;BME280;5877;50.930;6.918;2023-07-31T13:03:35;100118.91;;;23.26;54.69
11643;BME280;5877;50.930;6.918;2023-07-31T13:08:28;100214.84;;;24.34;53.14
11643;BME280;5877;50.930;6.918;2023-07-31T13:13:21;100177.56;;;24.15;52.45
11643;BME280;5877;50.930;6.918;2023-07-31T13:18:14;100178.34;;;24.24;52.75
11643;BME280;5877;50.930;6.918;2023-07-31T13:23:07;100188.34;;;24.41;52.53
11643;BME280;5877;50.930;6.918;2023-07-31T13:28:01;100177.16;;;24.65;51.88
11643;BME280;5877;50.930;6.918;2023-07-31T13:32:54;100128.22;;;24.51;50.78
11643;BME280;5877;50.930;6.918;2023-07-31T13:37:50;100098.53;;;25.37;48.66
11643;BME280;5877;50.930;6.918;2023-07-31T13:42:45;100146.22;;;25.87;47.64
11643;BME280;5877;50.930;6.918;2023-07-31T13:47:41;100122.94;;;26.12;46.75
11643;BME280;5877;50.930;6.918;2023-07-31T13:53:09;100174.13;;;26.24;47.12
11643;BME280;5877;50.930;6.918;2023-07-31T13:58:01;100165.25;;;26.53;46.73
11643;BME280;5877;50.930;6.918;2023-07-31T14:02:54;100141.25;;;27.14;45.51
11643;BME280;5877;50.930;6.918;2023-07-31T14:07:51;100136.16;;;26.26;45.70
11643;BME280;5877;50.930;6.918;2023-07-31T14:12:46;100114.84;;;26.00;46.65
11643;BME280;5877;50.930;6.918;2023-07-31T14:17:39;100164.47;;;26.52;45.83
11643;BME280;5877;50.930;6.918;2023-07-31T14:22:33;100106.88;;;24.98;47.86
11643;BME280;5877;50.930;6.918;2023-07-31T14:27:25;100135.91;;;24.96;49.37
11643;BME280;5877;50.930;6.918;2023-07-31T14:32:19;100142.34;;;24.00;51.10
11643;BME280;5877;50.930;6.918;2023-07-31T14:37:13;99969.25;;;22.54;52.50
11643;BME280;5877;50.930;6.918;2023-07-31T14:42:07;100101.69;;;22.87;53.94
11643;BME280;5877;50.930;6.918;2023-07-31T14:46:59;100087.19;;;23.11;52.93
11643;BME280;5877;50.930;6.918;2023-07-31T14:51:51;100085.88;;;23.87;51.77
11643;BME280;5877;50.930;6.918;2023-07-31T14:56:45;99972.94;;;22.89;51.82
11643;BME280;5877;50.930;6.918;2023-07-31T15:01:38;100132.69;;;23.11;53.67
11643;BME280;5877;50.930;6.918;2023-07-31T15:06:33;99954.84;;;22.10;53.16
11643;BME280;5877;50.930;6.918;2023-07-31T15:11:37;99978.03;;;22.23;53.52
11643;BME280;5877;50.930;6.918;2023-07-31T15:16:48;100124.91;;;23.01;53.97
11643;BME280;5877;50.930;6.918;2023-07-31T15:21:41;100134.34;;;23.60;52.79
11643;BME280;5877;50.930;6.918;2023-07-31T15:26:34;100132.28;;;23.57;52.20
11643;BME280;5877;50.930;6.918;2023-07-31T15:31:29;100126.50;;;23.02;53.12
11643;BME280;5877;50.930;6.918;2023-07-31T15:36:21;100089.44;;;22.73;54.16
11643;BME280;5877;50.930;6.918;2023-07-31T15:41:13;99975.88;;;21.89;54.31
11643;BME280;5877;50.930;6.918;2023-07-31T15:46:07;100081.38;;;22.64;54.58
11643;BME280;5877;50.930;6.918;2023-07-31T15:51:02;100058.75;;;22.48;54.54
11643;BME280;5877;50.930;6.918;2023-07-31T15:55:55;100048.06;;;22.48;57.98
11643;BME280;5877;50.930;6.918;2023-07-31T16:00:47;100093.34;;;22.44;57.48
11643;BME280;5877;50.930;6.918;2023-07-31T16:05:39;100077.59;;;22.65;57.12
11643;BME280;5877;50.930;6.918;2023-07-31T16:10:32;100048.53;;;22.27;59.06
11643;BME280;5877;50.930;6.918;2023-07-31T16:15:25;100060.75;;;22.20;59.80
11643;BME280;5877;50.930;6.918;2023-07-31T16:20:20;100078.00;;;21.86;62.68
11643;BME280;5877;50.930;6.918;2023-07-31T16:25:12;100053.50;;;21.70;62.64
11643;BME280;5877;50.930;6.918;2023-07-31T16:30:05;100048.75;;;21.26;66.90
11643;BME280;5877;50.930;6.918;2023-07-31T16:34:57;100017.66;;;20.76;69.30
11643;BME280;5877;50.930;6.918;2023-07-31T16:39:58;100013.91;;;20.25;76.12
11643;BME280;5877;50.930;6.918;2023-07-31T16:44:53;100047.88;;;20.38;82.32
11643;BME280;5877;50.930;6.918;2023-07-31T16:49:47;100029.91;;;20.25;87.99
11643;BME280;5877;50.930;6.918;2023-07-31T16:54:42;99991.53;;;20.07;89.57
11643;BME280;5877;50.930;6.918;2023-07-31T16:59:36;99994.59;;;20.33;87.48
11643;BME280;5877;50.930;6.918;2023-07-31T17:04:34;100018.38;;;20.49;85.21
11643;BME280;5877;50.930;6.918;2023-07-31T17:09:29;99980.28;;;20.29;85.92
11643;BME280;5877;50.930;6.918;2023-07-31T17:14:22;99962.41;;;20.30;83.88
11643;BME280;5877;50.930;6.918;2023-07-31T17:19:14;99989.56;;;20.51;81.58
11643;BME280;5877;50.930;6.918;2023-07-31T17:24:09;99897.47;;;19.74;86.18
11643;BME280;5877;50.930;6.918;2023-07-31T17:29:01;99929.03;;;20.00;89.38
11643;BME280;5877;50.930;6.918;2023-07-31T17:33:53;99902.44;;;19.62;90.16
11643;BME280;5877;50.930;6.918;2023-07-31T17:38:47;99884.91;;;19.61;90.45
11643;BME280;5877;50.930;6.918;2023-07-31T17:43:41;99922.22;;;19.94;91.06
11643;BME280;5877;50.930;6.918;2023-07-31T17:48:33;99903.75;;;19.65;95.22
11643;BME280;5877;50.930;6.918;2023-07-31T17:53:26;99919.34;;;19.71;95.67
11643;BME280;5877;50.930;6.918;2023-07-31T17:58:18;99936.91;;;19.54;98.81
11643;BME280;5877;50.930;6.918;2023-07-31T18:03:11;99914.50;;;19.36;100.00
11643;BME280;5877;50.930;6.918;2023-07-31T18:08:06;99924.63;;;19.58;100.00
11643;BME280;5877;50.930;6.918;2023-07-31T18:12:59;99897.97;;;19.39;100.00
11643;BME280;5877;50.930;6.918;2023-07-31T18:17:52;99863.28;;;19.25;99.97
11643;BME280;5877;50.930;6.918;2023-07-31T18:22:45;99896.31;;;19.43;98.88
11643;BME280;5877;50.930;6.918;2023-07-31T18:27:37;99892.19;;;19.32;100.00
11643;BME280;5877;50.930;6.918;2023-07-31T18:32:29;99829.47;;;18.88;100.00
11643;BME280;5877;50.930;6.918;2023-07-31T18:37:22;99865.78;;;19.17;100.00
11643;BME280;5877;50.930;6.918;2023-07-31T18:42:17;99894.34;;;19.11;100.00
11643;BME280;5877;50.930;6.918;2023-07-31T18:47:09;99809.03;;;18.60;100.00
11643;BME280;5877;50.930;6.918;2023-07-31T18:52:01;99842.13;;;18.96;100.00
11643;BME280;5877;50.930;6.918;2023-07-31T18:56:54;99868.06;;;19.04;100.00
11643;BME280;5877;50.930;6.918;2023-07-31T19:01:45;99817.44;;;18.72;100.00
11643;BME280;5877;50.930;6.918;2023-07-31T19:06:41;99840.97;;;19.02;100.00
11643;BME280;5877;50.930;6.918;2023-07-31T19:11:35;99820.47;;;18.84;100.00
11643;BME280;5877;50.930;6.918;2023-07-31T19:16:28;99831.91;;;18.85;100.00
11643;BME280;5877;50.930;6.918;2023-07-31T19:21:21;99837.75;;;19.05;100.00
11643;BME280;5877;50.930;6.918;2023-07-31T19:26:13;99804.34;;;18.75;100.00
11643;BME280;5877;50.930;6.918;2023-07-31T19:31:05;99752.09;;;18.42;100.00
11643;BME280;5877;50.930;6.918;2023-07-31T19:35:59;99801.41;;;18.77;100.00
11643;BME280;5877;50.930;6.918;2023-07-31T19:40:52;99774.22;;;18.61;100.00
11643;BME280;5877;50.930;6.918;2023-07-31T19:45:45;99745.09;;;18.51;100.00
11643;BME280;5877;50.930;6.918;2023-07-31T19:50:37;99731.81;;;18.08;100.00
11643;BME280;5877;50.930;6.918;2023-07-31T19:55:29;99784.16;;;18.50;100.00
11643;BME280;5877;50.930;6.918;2023-07-31T20:00:23;99762.47;;;18.67;100.00
11643;BME280;5877;50.930;6.918;2023-07-31T20:05:15;99775.09;;;18.75;100.00
11643;BME280;5877;50.930;6.918;2023-07-31T20:10:08;99770.81;;;18.79;100.00
11643;BME280;5877;50.930;6.918;2023-07-31T20:15:03;99740.91;;;18.69;100.00
11643;BME280;5877;50.930;6.918;2023-07-31T20:19:58;99770.53;;;19.00;100.00
11643;BME280;5877;50.930;6.918;2023-07-31T20:24:50;99761.25;;;18.97;100.00
11643;BME280;5877;50.930;6.918;2023-07-31T20:29:42;99536.19;;;17.56;100.00
11643;BME280;5877;50.930;6.918;2023-07-31T20:34:34;99763.13;;;19.16;100.00
11643;BME280;5877;50.930;6.918;2023-07-31T20:39:26;99727.25;;;18.94;100.00
11643;BME280;5877;50.930;6.918;2023-07-31T20:44:20;99715.47;;;18.81;100.00
11643;BME280;5877;50.930;6.918;2023-07-31T20:49:13;99727.53;;;18.93;100.00
11643;BME280;5877;50.930;6.918;2023-07-31T20:54:05;99751.69;;;19.15;100.00
11643;BME280;5877;50.930;6.918;2023-07-31T20:58:58;99705.69;;;18.96;100.00
11643;BME280;5877;50.930;6.918;2023-07-31T21:03:50;99694.72;;;18.84;100.00
11643;BME280;5877;50.930;6.918;2023-07-31T21:08:43;99647.28;;;18.72;100.00
11643;BME280;5877;50.930;6.918;2023-07-31T21:13:36;99678.09;;;18.92;100.00
11643;BME280;5877;50.930;6.918;2023-07-31T21:18:29;99654.41;;;18.76;100.00
11643;BME280;5877;50.930;6.918;2023-07-31T21:23:21;99663.94;;;18.96;100.00
11643;BME280;5877;50.930;6.918;2023-07-31T21:28:16;99650.44;;;18.93;100.00
11643;BME280;5877;50.930;6.918;2023-07-31T21:33:08;99659.25;;;19.07;100.00
11643;BME280;5877;50.930;6.918;2023-07-31T21:38:01;99633.28;;;18.66;100.00
11643;BME280;5877;50.930;6.918;2023-07-31T21:42:54;99627.94;;;18.85;100.00
11643;BME280;5877;50.930;6.918;2023-07-31T21:47:48;99493.16;;;18.02;100.00
11643;BME280;5877;50.930;6.918;2023-07-31T21:52:42;99610.81;;;18.91;100.00
11643;BME280;5877;50.930;6.918;2023-07-31T21:57:39;99587.78;;;18.87;100.00
11643;BME280;5877;50.930;6.918;2023-07-31T22:02:35;99572.44;;;18.65;100.00
11643;BME280;5877;50.930;6.918;2023-07-31T22:07:40;99569.97;;;18.49;100.00
11643;BME280;5877;50.930;6.918;2023-07-31T22:12:40;99572.72;;;18.44;100.00
11643;BME280;5877;50.930;6.918;2023-07-31T22:17:33;99544.06;;;18.41;100.00
11643;BME280;5877;50.930;6.918;2023-07-31T22:22:45;99540.78;;;18.31;100.00
11643;BME280;5877;50.930;6.918;2023-07-31T22:27:44;99558.50;;;18.35;100.00
11643;BME280;5877;50.930;6.918;2023-07-31T22:32:42;99561.66;;;18.56;100.00
11643;BME280;5877;50.930;6.918;2023-07-31T22:37:41;99546.88;;;18.31;100.00
11643;BME280;5877;50.930;6.918;2023-07-31T22:42:49;99523.84;;;18.27;100.00
11643;BME280;5877;50.930;6.918;2023-07-31T22:47:49;99434.72;;;17.64;100.00
11643;BME280;5877;50.930;6.918;2023-07-31T22:52:41;99439.69;;;17.90;100.00
11643;BME280;5877;50.930;6.918;2023-07-31T22:57:34;99457.34;;;17.99;100.00
11643;BME280;5877;50.930;6.918;2023-07-31T23:02:27;99411.22;;;17.95;100.00
11643;BME280;5877;50.930;6.918;2023-07-31T23:07:20;99449.72;;;18.11;100.00
11643;BME280;5877;50.930;6.918;2023-07-31T23:12:12;99455.97;;;18.34;100.00
11643;BME280;5877;50.930;6.918;2023-07-31T23:17:04;99439.31;;;18.15;100.00
11643;BME280;5877;50.930;6.918;2023-07-31T23:21:58;99408.03;;;18.12;100.00
11643;BME280;5877;50.930;6.918;2023-07-31T23:26:50;99410.91;;;18.29;100.00
11643;BME280;5877;50.930;6.918;2023-07-31T23:31:42;99349.78;;;18.02;100.00
11643;BME280;5877;50.930;6.918;2023-07-31T23:36:36;99408.97;;;18.48;100.00
11643;BME280;5877;50.930;6.918;2023-07-31T23:41:29;99348.72;;;18.16;100.00
11643;BME280;5877;50.930;6.918;2023-07-31T23:46:24;99397.03;;;18.32;100.00
11643;BME280;5877;50.930;6.918;2023-07-31T23:51:16;99339.47;;;18.14;100.00
11643;BME280;5877;50.930;6.918;2023-07-31T23:56:11;99367.00;;;18.78;100.00
